Time;durP1;ratioP1;P1;durP2;ratioP2;P2;SDS_P1;SDS_P2;PMS_P1;PMS_P2;Temp;Humidity;BMP_temperature;BMP_pressure;BME280_temperature;BME280_humidity;BME280_pressure;Samples;Min_cycle;Max_cycle;Signal;HPM_P1;HPM_P2
2021/07/06 00:00:42;;;;;;;2.87;1.60;;;18.30;99.90;;;;;;5022805;28;20470;-76
2021/07/06 00:03:09;;;;;;;1.70;1.60;;;18.30;99.90;;;;;;5029119;28;20489;-75
2021/07/06 00:05:36;;;;;;;3.00;2.10;;;18.30;99.90;;;;;;5016766;28;20450;-75
2021/07/06 00:08:04;;;;;;;4.50;1.90;;;18.20;99.90;;;;;;5018885;28;20423;-76
2021/07/06 00:10:31;;;;;;;2.00;1.70;;;18.20;99.90;;;;;;5028149;28;20446;-75
2021/07/06 00:13:03;;;;;;;2.00;1.70;;;18.20;99.90;;;;;;5020573;28;20596;-75
2021/07/06 00:15:34;;;;;;;2.63;2.10;;;18.20;99.90;;;;;;5028303;28;20923;-75
2021/07/06 00:18:01;;;;;;;3.10;2.07;;;18.20;99.90;;;;;;5019750;28;20471;-75
2021/07/06 00:20:30;;;;;;;3.60;2.20;;;18.20;99.90;;;;;;5010739;28;20828;-76
2021/07/06 00:22:59;;;;;;;2.63;1.83;;;18.20;99.90;;;;;;5008757;28;20451;-75
2021/07/06 00:25:26;;;;;;;2.70;2.00;;;18.20;99.90;;;;;;5014991;28;20461;-76
2021/07/06 00:27:54;;;;;;;2.80;2.20;;;18.20;99.90;;;;;;5028174;28;20941;-76
2021/07/06 00:30:22;;;;;;;2.20;1.93;;;18.20;99.90;;;;;;5026717;28;20633;-75
2021/07/06 00:32:50;;;;;;;2.13;1.93;;;18.30;99.90;;;;;;5015192;28;20459;-76
2021/07/06 00:35:18;;;;;;;2.33;2.07;;;18.20;99.90;;;;;;5014270;28;20453;-75
2021/07/06 00:37:46;;;;;;;3.27;2.00;;;18.20;99.90;;;;;;5003317;28;20482;-75
2021/07/06 00:40:14;;;;;;;2.40;2.03;;;18.20;99.90;;;;;;5012155;28;20477;-75
2021/07/06 00:42:42;;;;;;;2.43;2.00;;;18.20;99.90;;;;;;5008624;28;20447;-75
2021/07/06 00:45:13;;;;;;;2.30;1.90;;;18.20;99.90;;;;;;5013053;28;20545;-75
2021/07/06 00:47:42;;;;;;;3.83;2.07;;;18.20;99.90;;;;;;5016354;28;20446;-76
2021/07/06 00:50:13;;;;;;;4.50;2.20;;;18.20;99.90;;;;;;5016241;28;20946;-76
2021/07/06 00:52:40;;;;;;;2.33;1.90;;;18.20;99.90;;;;;;5030941;28;20454;-75
2021/07/06 00:55:08;;;;;;;2.37;1.70;;;18.20;99.90;;;;;;5029017;28;20485;-75
2021/07/06 00:57:35;;;;;;;2.53;1.70;;;18.20;99.90;;;;;;5016424;28;20454;-75
2021/07/06 01:00:06;;;;;;;3.00;2.00;;;18.20;99.90;;;;;;5023608;28;20458;-75
2021/07/06 01:02:33;;;;;;;6.07;1.90;;;18.20;99.90;;;;;;5013529;28;20489;-75
2021/07/06 01:05:00;;;;;;;3.37;1.77;;;18.20;99.90;;;;;;5023696;28;20969;-75
2021/07/06 01:07:29;;;;;;;2.13;1.93;;;18.10;99.90;;;;;;5031355;28;20426;-75
2021/07/06 01:09:56;;;;;;;3.40;1.90;;;18.10;99.90;;;;;;5023450;28;20561;-75
2021/07/06 01:12:25;;;;;;;2.93;2.20;;;18.10;99.90;;;;;;5011448;28;20435;-75
2021/07/06 01:14:52;;;;;;;1.97;1.77;;;18.10;99.90;;;;;;5025984;28;21430;-75
2021/07/06 01:17:26;;;;;;;5.67;2.00;;;18.10;99.90;;;;;;5013345;28;20483;-75
2021/07/06 01:19:53;;;;;;;8.50;2.00;;;18.10;99.90;;;;;;5015097;28;20525;-75
2021/07/06 01:22:27;;;;;;;2.20;2.00;;;18.00;99.90;;;;;;5011760;28;20446;-75
2021/07/06 01:24:55;;;;;;;5.07;1.83;;;18.00;99.90;;;;;;5022667;28;20576;-76
2021/07/06 01:27:22;;;;;;;2.13;1.73;;;18.00;99.90;;;;;;5029998;28;20439;-76
2021/07/06 01:29:49;;;;;;;2.80;1.70;;;18.00;99.90;;;;;;5023726;28;20983;-75
2021/07/06 01:32:17;;;;;;;5.20;2.10;;;17.90;99.90;;;;;;5033405;28;20446;-75
2021/07/06 01:34:44;;;;;;;2.40;1.83;;;17.90;99.90;;;;;;5033431;28;20453;-75
2021/07/06 01:37:10;;;;;;;2.27;1.80;;;17.90;99.90;;;;;;5021899;28;20454;-75
2021/07/06 01:39:40;;;;;;;2.20;1.50;;;17.90;99.90;;;;;;5017234;28;20488;-76
2021/07/06 01:42:07;;;;;;;3.60;2.00;;;17.90;99.90;;;;;;5013782;28;20509;-76
2021/07/06 01:44:34;;;;;;;3.00;1.90;;;17.80;99.90;;;;;;5029420;28;20827;-75
2021/07/06 01:47:01;;;;;;;2.50;2.03;;;17.80;99.90;;;;;;5030689;28;20404;-76
2021/07/06 01:49:28;;;;;;;3.27;2.93;;;17.80;99.90;;;;;;5021236;28;20817;-75
2021/07/06 01:51:55;;;;;;;2.83;1.60;;;17.80;99.90;;;;;;5030055;28;20565;-75
2021/07/06 01:54:22;;;;;;;2.00;1.60;;;17.80;99.90;;;;;;5017137;28;20443;-76
2021/07/06 01:56:50;;;;;;;2.57;1.90;;;17.80;99.90;;;;;;5013186;28;20448;-75
2021/07/06 01:59:17;;;;;;;3.50;1.80;;;17.80;99.90;;;;;;5029291;28;20461;-75
2021/07/06 02:01:45;;;;;;;1.70;1.60;;;17.80;99.90;;;;;;5016208;28;20481;-75
2021/07/06 02:04:13;;;;;;;2.30;1.80;;;17.70;99.90;;;;;;5013890;28;20465;-75
2021/07/06 02:06:40;;;;;;;2.43;1.73;;;17.80;99.90;;;;;;5015792;28;20749;-75
2021/07/06 02:09:08;;;;;;;2.90;1.43;;;17.70;99.90;;;;;;5030236;28;20476;-75
2021/07/06 02:11:35;;;;;;;2.23;1.97;;;17.70;99.90;;;;;;5026866;28;20473;-75
2021/07/06 02:14:04;;;;;;;2.00;1.80;;;17.70;99.90;;;;;;5015261;28;20549;-75
2021/07/06 02:16:32;;;;;;;2.10;1.53;;;17.70;99.90;;;;;;5016996;28;20453;-75
2021/07/06 02:18:59;;;;;;;4.13;1.83;;;17.70;99.90;;;;;;5015822;28;20550;-75
2021/07/06 02:21:26;;;;;;;4.50;1.83;;;17.70;99.90;;;;;;5017688;28;20477;-76
2021/07/06 02:23:54;;;;;;;2.37;1.73;;;17.70;99.90;;;;;;5029962;28;20468;-75
2021/07/06 02:26:26;;;;;;;4.17;1.87;;;17.70;99.90;;;;;;5030189;28;20441;-75
2021/07/06 02:28:53;;;;;;;3.33;1.60;;;17.70;99.90;;;;;;5015164;28;20800;-75
2021/07/06 02:31:21;;;;;;;3.07;2.20;;;17.70;99.90;;;;;;5016181;28;20445;-76
2021/07/06 02:33:48;;;;;;;2.03;1.80;;;17.70;99.90;;;;;;5023553;28;20441;-75
2021/07/06 02:36:15;;;;;;;2.80;1.70;;;17.70;99.90;;;;;;5021448;28;20613;-75
2021/07/06 02:38:42;;;;;;;2.83;1.70;;;17.70;99.90;;;;;;5029316;28;20492;-75
2021/07/06 02:41:09;;;;;;;3.00;2.33;;;17.70;99.90;;;;;;5029860;28;20468;-75
2021/07/06 02:43:38;;;;;;;5.47;2.30;;;17.60;99.90;;;;;;5022586;28;20457;-75
2021/07/06 02:46:06;;;;;;;2.40;1.80;;;17.70;99.90;;;;;;5016371;28;20442;-75
2021/07/06 02:48:35;;;;;;;4.37;2.60;;;17.70;99.90;;;;;;5015298;28;20609;-75
2021/07/06 02:51:02;;;;;;;5.67;1.90;;;17.70;99.90;;;;;;5015227;28;20481;-75
2021/07/06 02:53:29;;;;;;;2.20;1.70;;;17.60;99.90;;;;;;5022086;28;20857;-75
2021/07/06 02:55:56;;;;;;;3.93;1.97;;;17.60;99.90;;;;;;5029320;28;20416;-75
2021/07/06 02:58:23;;;;;;;1.77;1.67;;;17.60;99.90;;;;;;5025828;28;20550;-75
2021/07/06 03:00:50;;;;;;;3.67;2.10;;;17.60;99.90;;;;;;5014323;28;20463;-75
2021/07/06 03:03:17;;;;;;;7.23;2.00;;;17.60;99.90;;;;;;5015631;28;20806;-75
2021/07/06 03:05:46;;;;;;;1.90;1.80;;;17.60;99.90;;;;;;5020804;28;20454;-75
2021/07/06 03:08:13;;;;;;;7.90;2.27;;;17.60;99.90;;;;;;5009323;28;20442;-75
2021/07/06 03:10:41;;;;;;;2.93;1.93;;;17.60;99.90;;;;;;5008836;28;20657;-75
2021/07/06 03:13:09;;;;;;;2.83;2.23;;;17.60;99.90;;;;;;5028320;28;20457;-75
2021/07/06 03:15:37;;;;;;;2.17;1.83;;;17.60;99.90;;;;;;5016841;28;20434;-75
2021/07/06 03:18:06;;;;;;;5.27;2.03;;;17.60;99.90;;;;;;5011897;28;20453;-75
2021/07/06 03:20:34;;;;;;;6.00;1.90;;;17.60;99.90;;;;;;4999415;28;20527;-76
2021/07/06 03:23:04;;;;;;;7.63;2.63;;;17.60;99.90;;;;;;5028901;28;20946;-75
2021/07/06 03:25:32;;;;;;;2.00;1.80;;;17.60;99.90;;;;;;5010839;28;20452;-75
2021/07/06 03:28:00;;;;;;;3.40;1.87;;;17.70;99.90;;;;;;5004888;28;20972;-75
2021/07/06 03:30:29;;;;;;;4.30;1.67;;;17.70;99.90;;;;;;5031539;28;20483;-76
2021/07/06 03:32:58;;;;;;;4.50;2.07;;;17.70;99.90;;;;;;5027141;28;20468;-75
2021/07/06 03:35:26;;;;;;;9.40;2.27;;;17.70;99.90;;;;;;5017391;28;20456;-75
2021/07/06 03:37:54;;;;;;;2.60;1.90;;;17.70;99.90;;;;;;5006767;28;20433;-75
2021/07/06 03:40:22;;;;;;;2.53;1.80;;;17.70;99.90;;;;;;5020597;28;20485;-75
2021/07/06 03:42:50;;;;;;;3.93;2.00;;;17.70;99.90;;;;;;5014896;28;20466;-75
2021/07/06 03:45:18;;;;;;;2.10;1.90;;;17.70;99.90;;;;;;5028838;28;21017;-75
2021/07/06 03:47:45;;;;;;;4.93;2.20;;;17.70;99.90;;;;;;5028202;28;20637;-75
2021/07/06 03:50:18;;;;;;;2.20;2.00;;;17.70;99.90;;;;;;5018865;28;20872;-75
2021/07/06 03:52:45;;;;;;;1.93;1.73;;;17.70;99.90;;;;;;5029886;28;20449;-75
2021/07/06 03:55:13;;;;;;;2.43;1.83;;;17.70;99.90;;;;;;5031293;28;20775;-75
2021/07/06 03:57:41;;;;;;;8.80;2.13;;;17.70;99.90;;;;;;5020767;28;20946;-75
2021/07/06 04:00:11;;;;;;;3.30;2.23;;;17.70;99.90;;;;;;5015592;28;20463;-75
2021/07/06 04:02:39;;;;;;;5.70;2.00;;;17.70;99.90;;;;;;5015333;28;20469;-75
2021/07/06 04:05:08;;;;;;;2.50;2.30;;;17.80;99.90;;;;;;5011858;28;20470;-76
2021/07/06 04:07:36;;;;;;;3.60;2.27;;;17.70;99.90;;;;;;5011149;28;20472;-76
2021/07/06 04:10:06;;;;;;;3.87;1.57;;;17.80;99.90;;;;;;5012844;28;20995;-76
2021/07/06 04:12:33;;;;;;;6.60;2.27;;;17.80;99.90;;;;;;5019283;28;20437;-77
2021/07/06 04:15:01;;;;;;;2.90;1.97;;;17.80;99.90;;;;;;5015740;28;20431;-75
2021/07/06 04:17:29;;;;;;;3.43;1.80;;;17.80;99.90;;;;;;5013288;28;21222;-76
2021/07/06 04:19:56;;;;;;;4.67;2.50;;;17.80;99.90;;;;;;5012210;28;20495;-76
2021/07/06 04:22:23;;;;;;;3.10;2.20;;;17.80;99.90;;;;;;5012210;28;21034;-75
2021/07/06 04:24:51;;;;;;;2.50;1.70;;;17.80;99.90;;;;;;5012321;28;20494;-75
2021/07/06 04:27:18;;;;;;;6.60;2.23;;;17.80;99.90;;;;;;5030037;28;20437;-75
2021/07/06 04:29:47;;;;;;;2.63;1.93;;;17.80;99.90;;;;;;5018148;28;20457;-75
2021/07/06 04:32:16;;;;;;;3.53;2.07;;;17.80;99.90;;;;;;5014745;28;20456;-75
2021/07/06 04:34:43;;;;;;;1.97;1.77;;;17.80;99.90;;;;;;5015420;28;20477;-75
2021/07/06 04:37:10;;;;;;;3.07;2.07;;;17.80;99.90;;;;;;5030598;28;20757;-75
2021/07/06 04:39:37;;;;;;;4.90;2.00;;;17.80;99.90;;;;;;5032020;28;20469;-76
2021/07/06 04:42:06;;;;;;;2.00;1.80;;;17.80;99.90;;;;;;5027783;28;20485;-75
2021/07/06 04:44:33;;;;;;;4.30;2.17;;;17.80;99.90;;;;;;5010188;28;20464;-75
2021/07/06 04:47:00;;;;;;;3.20;2.37;;;17.80;99.90;;;;;;5020213;28;20436;-76
2021/07/06 04:49:29;;;;;;;3.60;2.40;;;17.80;99.90;;;;;;5031975;28;20494;-75
2021/07/06 04:51:56;;;;;;;5.97;2.10;;;17.80;99.90;;;;;;5029726;28;20820;-75
2021/07/06 04:56:48;;;;;;;3.73;2.37;;;17.80;99.90;;;;;;5025812;28;21027;-75
2021/07/06 04:59:15;;;;;;;9.27;2.40;;;17.70;99.90;;;;;;5017769;28;20223;-75
2021/07/06 05:01:42;;;;;;;7.40;2.87;;;17.70;99.90;;;;;;5016343;28;20477;-76
2021/07/06 05:04:09;;;;;;;2.57;2.37;;;17.70;99.90;;;;;;5026736;28;20825;-75
2021/07/06 05:06:38;;;;;;;4.70;2.20;;;17.70;99.90;;;;;;5029386;28;20468;-75
2021/07/06 05:09:06;;;;;;;3.17;2.63;;;17.70;99.90;;;;;;5024558;28;20548;-75
2021/07/06 05:11:32;;;;;;;2.57;2.30;;;17.70;99.90;;;;;;5017569;28;20808;-75
2021/07/06 05:14:00;;;;;;;5.10;2.30;;;17.70;99.90;;;;;;5015029;28;20461;-75
2021/07/06 05:16:26;;;;;;;4.73;3.37;;;17.70;99.90;;;;;;5011494;28;20474;-75
2021/07/06 05:18:53;;;;;;;2.73;2.30;;;17.70;99.90;;;;;;5014761;28;20454;-76
2021/07/06 05:21:20;;;;;;;2.87;2.67;;;17.70;99.90;;;;;;5030181;28;20475;-75
2021/07/06 05:23:49;;;;;;;3.73;2.30;;;17.70;99.90;;;;;;5031708;28;20474;-76
2021/07/06 05:26:15;;;;;;;3.80;2.43;;;17.70;99.90;;;;;;5018927;28;20825;-75
2021/07/06 05:28:42;;;;;;;3.20;2.13;;;17.70;99.90;;;;;;5017996;28;20918;-75
2021/07/06 05:31:10;;;;;;;5.47;2.83;;;17.70;99.90;;;;;;5030027;28;20473;-75
2021/07/06 05:33:38;;;;;;;3.00;2.40;;;17.70;99.90;;;;;;5021392;28;20507;-75
2021/07/06 05:36:05;;;;;;;6.60;2.90;;;17.60;99.90;;;;;;5029708;28;20471;-76
2021/07/06 05:38:32;;;;;;;6.57;3.17;;;17.70;99.90;;;;;;5028908;28;20493;-75
2021/07/06 05:41:02;;;;;;;4.20;2.53;;;17.70;99.90;;;;;;5016314;28;20933;-75
2021/07/06 05:43:29;;;;;;;4.90;3.00;;;17.70;99.90;;;;;;5019940;28;20434;-75
2021/07/06 05:45:57;;;;;;;4.70;3.27;;;17.60;99.90;;;;;;5020444;28;20780;-75
2021/07/06 05:48:25;;;;;;;8.43;3.47;;;17.60;99.90;;;;;;5030190;28;20918;-76
2021/07/06 05:50:52;;;;;;;6.40;3.47;;;17.60;99.90;;;;;;5025171;28;20453;-75
2021/07/06 05:53:18;;;;;;;5.50;3.70;;;17.60;99.90;;;;;;5015431;28;20454;-75
2021/07/06 05:55:45;;;;;;;6.43;3.40;;;17.60;99.90;;;;;;5016969;28;20452;-77
2021/07/06 05:58:15;;;;;;;4.43;3.00;;;17.60;99.90;;;;;;5015358;28;20460;-75
2021/07/06 06:00:42;;;;;;;4.57;3.10;;;17.60;99.90;;;;;;5016008;28;20480;-75
2021/07/06 06:03:11;;;;;;;11.10;3.70;;;17.60;99.90;;;;;;5026259;28;20503;-75
2021/07/06 06:05:38;;;;;;;5.30;3.00;;;17.70;99.90;;;;;;5021433;28;20446;-76
2021/07/06 06:08:05;;;;;;;5.70;3.57;;;17.60;99.90;;;;;;5015914;28;20821;-75
2021/07/06 06:10:33;;;;;;;4.80;3.87;;;17.60;99.90;;;;;;5009927;28;20829;-76
2021/07/06 06:13:00;;;;;;;6.00;3.13;;;17.60;99.90;;;;;;5013389;28;21082;-75
2021/07/06 06:15:28;;;;;;;5.80;3.50;;;17.50;99.90;;;;;;5013751;28;20488;-75
2021/07/06 06:17:55;;;;;;;7.80;3.77;;;17.60;99.90;;;;;;5010112;28;20445;-76
2021/07/06 06:20:22;;;;;;;5.77;3.77;;;17.60;99.90;;;;;;5015551;28;20507;-75
2021/07/06 06:22:49;;;;;;;5.80;3.73;;;17.50;99.90;;;;;;5029632;28;20454;-75
2021/07/06 06:25:16;;;;;;;4.50;3.67;;;17.50;99.90;;;;;;5015684;28;20451;-75
2021/07/06 06:27:43;;;;;;;6.47;3.30;;;17.50;99.90;;;;;;5017798;28;20941;-76
2021/07/06 06:30:12;;;;;;;4.27;3.60;;;17.50;99.90;;;;;;5009504;28;21017;-74
2021/07/06 06:32:40;;;;;;;4.30;3.67;;;17.50;99.90;;;;;;5021024;28;20481;-75
2021/07/06 06:35:09;;;;;;;9.00;4.17;;;17.50;99.90;;;;;;5027527;28;20447;-75
2021/07/06 06:37:36;;;;;;;7.63;3.57;;;17.50;99.90;;;;;;5027171;28;20446;-75
2021/07/06 06:40:03;;;;;;;4.43;3.43;;;17.50;99.90;;;;;;5029857;28;20806;-75
2021/07/06 06:42:30;;;;;;;3.97;3.20;;;17.50;99.90;;;;;;5013872;28;20448;-76
2021/07/06 06:44:57;;;;;;;5.73;3.67;;;17.60;99.90;;;;;;5016710;28;20424;-76
2021/07/06 06:47:24;;;;;;;4.23;3.40;;;17.50;99.90;;;;;;5028890;28;20440;-77
2021/07/06 06:49:52;;;;;;;8.13;3.17;;;17.50;99.90;;;;;;5027870;28;20841;-75
2021/07/06 06:52:19;;;;;;;10.40;3.90;;;17.50;99.90;;;;;;5029602;28;20803;-75
2021/07/06 06:54:46;;;;;;;4.30;3.17;;;17.50;99.90;;;;;;5022684;28;20534;-76
2021/07/06 06:57:13;;;;;;;11.33;3.63;;;17.50;99.90;;;;;;5017866;28;20453;-75
2021/07/06 06:59:40;;;;;;;4.13;3.50;;;17.50;99.90;;;;;;5021744;28;20507;-75
2021/07/06 07:04:51;;;;;;;4.07;2.93;;;17.40;99.90;;;;;;5015835;28;20754;-76
2021/07/06 07:07:20;;;;;;;5.30;4.00;;;17.40;99.90;;;;;;5016296;28;20899;-76
2021/07/06 07:09:48;;;;;;;4.60;3.80;;;17.40;99.90;;;;;;5017515;28;20458;-75
2021/07/06 07:12:15;;;;;;;6.67;3.37;;;17.30;99.90;;;;;;5014745;28;20422;-76
2021/07/06 07:14:43;;;;;;;4.60;3.73;;;17.30;99.90;;;;;;5018448;28;20456;-75
2021/07/06 07:17:10;;;;;;;4.97;3.47;;;17.30;99.90;;;;;;5027812;28;20433;-75
2021/07/06 07:19:38;;;;;;;4.70;3.57;;;17.30;99.90;;;;;;4999435;28;20458;-75
2021/07/06 07:22:06;;;;;;;5.67;3.50;;;17.30;99.90;;;;;;5028528;28;20468;-76
2021/07/06 07:24:35;;;;;;;3.80;3.40;;;17.30;99.90;;;;;;5027900;28;20446;-75
2021/07/06 07:27:03;;;;;;;6.40;3.97;;;17.40;99.90;;;;;;5020706;28;20477;-75
2021/07/06 07:29:30;;;;;;;4.13;3.40;;;17.40;99.90;;;;;;5014560;28;20466;-75
2021/07/06 07:31:56;;;;;;;4.10;3.27;;;17.50;99.90;;;;;;5017625;28;20466;-75
2021/07/06 07:34:23;;;;;;;7.10;3.83;;;17.50;99.90;;;;;;5029227;28;20431;-75
2021/07/06 07:36:50;;;;;;;4.87;3.93;;;17.50;99.90;;;;;;5021188;28;20412;-75
2021/07/06 07:39:18;;;;;;;6.30;4.03;;;17.50;99.90;;;;;;5029900;28;20454;-75
2021/07/06 07:41:46;;;;;;;3.63;3.27;;;17.50;99.90;;;;;;5024841;28;20490;-75
2021/07/06 07:44:13;;;;;;;5.73;3.63;;;17.50;99.90;;;;;;5012430;28;20471;-76
2021/07/06 07:46:40;;;;;;;6.20;3.70;;;17.50;99.90;;;;;;5018459;28;20445;-76
2021/07/06 07:49:07;;;;;;;4.23;3.10;;;17.50;99.90;;;;;;5026055;28;20798;-76
2021/07/06 07:51:34;;;;;;;4.03;3.60;;;17.50;99.90;;;;;;5012396;28;20483;-76
2021/07/06 07:54:01;;;;;;;4.03;3.40;;;17.60;99.90;;;;;;5019318;28;20465;-76
2021/07/06 07:56:28;;;;;;;4.53;3.43;;;17.50;99.90;;;;;;5027046;28;20817;-76
2021/07/06 07:58:56;;;;;;;4.07;3.67;;;17.50;99.90;;;;;;5018072;28;20463;-76
2021/07/06 08:01:23;;;;;;;5.20;3.37;;;17.60;99.90;;;;;;5018745;28;20827;-75
2021/07/06 08:03:50;;;;;;;4.07;3.63;;;17.50;99.90;;;;;;5012687;28;20442;-76
2021/07/06 08:06:17;;;;;;;4.20;3.30;;;17.60;99.90;;;;;;5027966;28;20710;-76
2021/07/06 08:08:44;;;;;;;3.80;3.27;;;17.60;99.90;;;;;;5029928;28;20428;-76
2021/07/06 08:11:11;;;;;;;7.33;2.93;;;17.60;99.90;;;;;;5023720;28;20490;-76
2021/07/06 08:13:37;;;;;;;3.80;3.00;;;17.60;99.90;;;;;;5034844;28;20441;-76
2021/07/06 08:16:06;;;;;;;4.13;3.30;;;17.60;99.90;;;;;;5032882;28;20452;-76
2021/07/06 08:18:33;;;;;;;6.47;3.73;;;17.60;99.90;;;;;;5034844;28;20455;-76
2021/07/06 08:21:00;;;;;;;3.90;3.50;;;17.70;99.90;;;;;;5017248;28;20557;-76
2021/07/06 08:23:28;;;;;;;4.73;3.93;;;17.70;99.90;;;;;;5019479;28;20430;-76
2021/07/06 08:25:55;;;;;;;5.53;3.83;;;17.80;99.90;;;;;;5027418;28;20797;-76
2021/07/06 08:28:23;;;;;;;4.90;4.37;;;17.80;99.90;;;;;;5019766;28;20833;-76
2021/07/06 08:30:51;;;;;;;3.60;3.30;;;17.80;99.90;;;;;;5017645;28;20480;-75
2021/07/06 08:33:20;;;;;;;4.53;3.30;;;17.80;99.90;;;;;;5015579;28;20468;-75
2021/07/06 08:35:47;;;;;;;4.10;3.20;;;17.90;99.90;;;;;;5029274;28;20465;-76
2021/07/06 08:38:15;;;;;;;3.27;2.70;;;17.90;99.90;;;;;;5021105;28;21153;-76
2021/07/06 08:40:43;;;;;;;3.73;3.33;;;17.90;99.90;;;;;;5023749;28;20492;-75
2021/07/06 08:43:10;;;;;;;3.27;2.97;;;17.90;99.90;;;;;;5027808;28;21168;-76
2021/07/06 08:45:37;;;;;;;3.20;3.00;;;17.90;99.90;;;;;;5015722;28;20468;-75
2021/07/06 08:48:11;;;;;;;6.70;3.50;;;17.90;99.90;;;;;;5026597;28;20535;-75
2021/07/06 08:50:39;;;;;;;7.73;3.20;;;18.00;99.90;;;;;;5028569;28;20473;-76
2021/07/06 08:53:06;;;;;;;4.17;3.73;;;18.00;99.90;;;;;;5031792;28;20452;-75
2021/07/06 08:55:33;;;;;;;3.93;3.37;;;18.00;99.90;;;;;;5017722;28;20449;-76
2021/07/06 08:58:00;;;;;;;7.73;3.67;;;18.10;99.90;;;;;;5018692;28;20539;-74
2021/07/06 09:00:30;;;;;;;4.93;3.70;;;18.10;99.90;;;;;;5013700;28;20486;-75
2021/07/06 09:02:59;;;;;;;4.00;3.37;;;18.20;99.90;;;;;;5015475;28;20457;-75
2021/07/06 09:05:27;;;;;;;4.80;3.47;;;18.20;99.90;;;;;;5028277;28;20453;-76
2021/07/06 09:07:56;;;;;;;4.93;3.83;;;18.20;99.90;;;;;;5015691;28;20469;-75
2021/07/06 09:10:24;;;;;;;3.87;3.27;;;18.20;99.90;;;;;;5021313;28;20488;-75
2021/07/06 09:12:52;;;;;;;6.77;3.07;;;18.20;99.90;;;;;;5017737;28;20445;-75
2021/07/06 09:15:23;;;;;;;4.63;3.30;;;18.30;99.90;;;;;;5020662;28;21194;-75
2021/07/06 09:18:05;;;;;;;3.53;3.23;;;18.20;99.90;;;;;;5026880;28;20931;-75
2021/07/06 09:20:35;;;;;;;4.37;3.03;;;18.30;99.90;;;;;;5029640;28;20481;-75
2021/07/06 09:23:22;;;;;;;3.10;2.80;;;18.30;99.90;;;;;;5022190;28;20466;-75
2021/07/06 09:26:06;;;;;;;3.10;2.90;;;18.40;99.90;;;;;;5015767;28;20441;-75
2021/07/06 09:28:35;;;;;;;3.60;3.13;;;18.40;99.90;;;;;;5018542;28;20451;-76
2021/07/06 09:31:16;;;;;;;4.93;3.40;;;18.40;99.90;;;;;;5024608;28;21169;-75
2021/07/06 09:33:50;;;;;;;5.67;3.67;;;18.50;99.90;;;;;;5029343;28;20919;-75
2021/07/06 09:36:34;;;;;;;2.77;2.50;;;18.60;99.90;;;;;;5019170;28;20552;-75
2021/07/06 09:39:07;;;;;;;3.20;2.90;;;18.70;99.90;;;;;;5013241;28;20451;-75
2021/07/06 09:41:34;;;;;;;3.10;2.77;;;18.70;99.90;;;;;;5014981;28;20485;-75
2021/07/06 09:44:18;;;;;;;2.83;2.57;;;18.70;99.90;;;;;;5017956;28;20806;-75
2021/07/06 09:46:47;;;;;;;5.70;2.90;;;18.70;99.90;;;;;;5019159;28;20455;-74
2021/07/06 09:49:17;;;;;;;3.67;3.10;;;18.70;99.90;;;;;;4992949;28;21202;-75
2021/07/06 09:51:44;;;;;;;2.90;2.50;;;18.70;99.90;;;;;;5009324;28;20987;-75
2021/07/06 09:54:25;;;;;;;3.73;2.30;;;18.70;99.90;;;;;;5012040;28;20467;-75
2021/07/06 09:56:54;;;;;;;3.20;2.40;;;18.80;99.90;;;;;;5012702;28;20455;-75
2021/07/06 09:59:22;;;;;;;3.50;2.20;;;18.80;99.90;;;;;;5022235;28;20824;-75
2021/07/06 10:01:54;;;;;;;3.13;2.10;;;18.80;99.90;;;;;;5024929;28;20494;-75
2021/07/06 10:04:23;;;;;;;1.90;1.63;;;18.80;99.90;;;;;;5030305;28;20537;-75
2021/07/06 10:06:51;;;;;;;3.20;2.10;;;18.80;99.90;;;;;;5018813;28;20910;-75
2021/07/06 10:09:19;;;;;;;2.53;2.10;;;18.80;99.90;;;;;;5014775;28;21844;-75
2021/07/06 10:11:46;;;;;;;2.97;1.90;;;18.80;99.90;;;;;;5014845;28;20462;-74
2021/07/06 10:14:13;;;;;;;2.50;1.80;;;18.80;99.90;;;;;;5015832;28;20462;-76
2021/07/06 10:16:41;;;;;;;2.00;1.80;;;18.80;99.90;;;;;;5023594;28;20458;-75
2021/07/06 10:19:13;;;;;;;2.23;2.00;;;18.70;99.90;;;;;;5030099;28;20431;-74
2021/07/06 10:21:40;;;;;;;2.67;1.93;;;18.80;99.90;;;;;;5027177;28;20486;-75
2021/07/06 10:24:09;;;;;;;3.73;1.80;;;18.70;99.90;;;;;;5009673;28;21780;-75
2021/07/06 10:26:40;;;;;;;1.70;1.60;;;18.70;99.90;;;;;;5009501;28;20461;-77
2021/07/06 10:29:07;;;;;;;2.07;1.90;;;18.70;99.90;;;;;;5023057;28;20458;-77
2021/07/06 10:31:43;;;;;;;2.13;1.80;;;18.80;99.90;;;;;;5029804;28;20986;-76
2021/07/06 10:34:26;;;;;;;2.60;2.07;;;18.80;99.90;;;;;;5024584;28;20558;-75
2021/07/06 10:36:54;;;;;;;2.97;1.80;;;18.80;99.90;;;;;;5013416;28;20461;-75
2021/07/06 10:39:43;;;;;;;2.33;1.70;;;18.50;99.90;;;;;;5013114;28;20712;-77
2021/07/06 10:42:12;;;;;;;5.13;1.50;;;18.50;99.90;;;;;;5022521;28;20563;-76
2021/07/06 10:44:42;;;;;;;1.53;1.30;;;18.50;99.90;;;;;;5023681;28;20449;-76
2021/07/06 10:47:39;;;;;;;1.70;1.30;;;18.60;99.90;;;;;;5026862;28;20441;-78
2021/07/06 10:50:24;;;;;;;3.67;1.67;;;18.60;99.90;;;;;;5017935;28;20480;-76
2021/07/06 10:53:15;;;;;;;1.60;1.43;;;18.50;99.90;;;;;;5016807;28;20465;-77
2021/07/06 10:55:43;;;;;;;3.40;1.30;;;18.50;99.90;;;;;;5008040;28;20462;-75
2021/07/06 10:58:11;;;;;;;1.97;1.40;;;18.40;99.90;;;;;;5020576;28;20454;-76
2021/07/06 11:00:42;;;;;;;1.93;1.57;;;18.30;99.90;;;;;;5023754;28;20485;-76
2021/07/06 11:03:14;;;;;;;2.07;1.40;;;18.40;99.90;;;;;;5025432;28;20997;-76
2021/07/06 11:05:43;;;;;;;1.40;1.30;;;18.40;99.90;;;;;;5008926;28;20540;-77
2021/07/06 11:08:40;;;;;;;2.63;1.50;;;18.40;99.90;;;;;;5015117;28;20462;-76
2021/07/06 11:11:07;;;;;;;2.60;1.60;;;18.50;99.90;;;;;;5013140;28;20954;-77
2021/07/06 11:13:37;;;;;;;2.70;1.57;;;18.50;99.90;;;;;;5014600;28;20458;-77
2021/07/06 11:16:39;;;;;;;1.80;1.40;;;18.50;99.90;;;;;;5006810;28;20469;-77
2021/07/06 11:19:36;;;;;;;3.10;1.80;;;18.50;99.90;;;;;;5006514;28;20453;-77
2021/07/06 11:22:10;;;;;;;2.63;1.90;;;18.50;99.90;;;;;;5017015;28;20991;-76
2021/07/06 11:24:40;;;;;;;1.70;1.47;;;18.60;99.90;;;;;;5005416;28;20465;-77
2021/07/06 11:27:07;;;;;;;1.50;1.40;;;18.60;99.90;;;;;;5007884;28;20466;-76
2021/07/06 11:29:37;;;;;;;2.83;1.43;;;18.60;99.90;;;;;;5019774;28;20452;-76
2021/07/06 11:32:10;;;;;;;6.17;1.83;;;18.70;99.90;;;;;;5026337;28;21034;-78
2021/07/06 11:34:38;;;;;;;1.93;1.37;;;18.60;99.90;;;;;;5024542;28;20457;-78
2021/07/06 11:37:06;;;;;;;1.60;1.50;;;18.70;99.90;;;;;;5009212;28;20928;-76
2021/07/06 11:39:35;;;;;;;1.70;1.60;;;18.70;99.90;;;;;;5009510;28;22378;-77
2021/07/06 11:42:02;;;;;;;1.77;1.27;;;18.70;99.90;;;;;;5017929;28;20486;-81
2021/07/06 11:44:29;;;;;;;1.73;1.27;;;18.70;99.90;;;;;;5006098;28;21003;-79
2021/07/06 11:47:09;;;;;;;3.33;1.40;;;18.80;99.90;;;;;;5009804;28;20464;-76
2021/07/06 11:49:37;;;;;;;1.60;1.30;;;18.70;99.90;;;;;;5008165;28;20487;-75
2021/07/06 11:52:04;;;;;;;2.40;1.33;;;18.80;99.90;;;;;;5008821;28;20478;-76
2021/07/06 11:54:31;;;;;;;1.50;1.20;;;18.80;99.90;;;;;;5015734;28;20443;-76
2021/07/06 11:57:07;;;;;;;1.90;1.30;;;18.80;99.90;;;;;;5020950;28;20803;-76
2021/07/06 11:59:35;;;;;;;2.93;1.33;;;18.80;99.90;;;;;;5020099;28;20483;-77
2021/07/06 12:02:06;;;;;;;2.67;1.40;;;18.80;99.90;;;;;;5022318;28;20498;-76
2021/07/06 12:04:34;;;;;;;1.33;1.10;;;18.90;99.90;;;;;;5027795;28;20453;-76
2021/07/06 12:07:06;;;;;;;1.43;1.03;;;19.00;99.90;;;;;;5011852;28;20469;-76
2021/07/06 12:09:33;;;;;;;2.47;1.20;;;19.00;99.90;;;;;;5010086;28;20862;-76
2021/07/06 12:12:16;;;;;;;3.37;1.20;;;19.00;99.90;;;;;;5027057;28;20469;-77
2021/07/06 12:14:46;;;;;;;3.63;1.17;;;19.00;99.90;;;;;;5012459;28;20521;-77
2021/07/06 12:17:22;;;;;;;2.77;1.20;;;19.00;99.90;;;;;;5012801;28;20462;-76
2021/07/06 12:19:50;;;;;;;2.07;1.23;;;19.00;99.90;;;;;;5015493;28;20488;-77
2021/07/06 12:22:19;;;;;;;1.33;1.17;;;19.00;99.90;;;;;;5013881;28;20486;-76
2021/07/06 12:24:46;;;;;;;1.43;1.00;;;19.10;99.90;;;;;;5011526;28;20442;-78
2021/07/06 12:27:15;;;;;;;1.40;1.00;;;19.10;99.90;;;;;;5010560;28;20465;-78
2021/07/06 12:29:43;;;;;;;4.70;1.27;;;19.30;99.90;;;;;;5025654;28;20794;-78
2021/07/06 12:32:14;;;;;;;1.93;1.20;;;19.30;99.90;;;;;;5028190;28;20488;-77
2021/07/06 12:34:43;;;;;;;2.60;1.10;;;19.30;99.90;;;;;;5016339;28;20553;-78
2021/07/06 12:37:14;;;;;;;3.40;1.20;;;19.40;99.90;;;;;;4996596;28;20450;-77
2021/07/06 12:39:42;;;;;;;2.33;1.03;;;19.50;99.90;;;;;;5023568;28;20464;-77
2021/07/06 12:42:11;;;;;;;2.03;1.30;;;19.70;99.90;;;;;;5030472;28;20608;-79
2021/07/06 12:44:43;;;;;;;2.20;1.40;;;19.70;99.90;;;;;;5024618;28;20511;-78
2021/07/06 12:47:13;;;;;;;2.90;1.10;;;19.70;99.90;;;;;;5014228;28;20450;-79
2021/07/06 12:49:40;;;;;;;2.50;1.10;;;19.80;99.90;;;;;;5026460;28;20450;-77
2021/07/06 12:52:08;;;;;;;4.13;1.40;;;19.90;99.90;;;;;;5015042;28;20470;-79
2021/07/06 12:54:38;;;;;;;1.83;1.20;;;19.80;99.90;;;;;;5011865;28;20859;-78
2021/07/06 12:57:05;;;;;;;1.57;1.23;;;19.70;99.90;;;;;;5015687;28;20462;-78
2021/07/06 12:59:34;;;;;;;1.83;1.03;;;19.70;99.90;;;;;;5027683;28;20461;-78